Time;durP1;ratioP1;P1;durP2;ratioP2;P2;SDS_P1;SDS_P2;PMS_P1;PMS_P2;Temp;Humidity;BMP_temperature;BMP_pressure;BME280_temperature;BME280_humidity;BME280_pressure;Samples;Min_cycle;Max_cycle;Signal;HPM_P1;HPM_P2
2022/08/21 00:01:20;;;;;;;;;5.00;4.50;;;;;21.47;48.72;101388.69;5098624;27;46387;-51
2022/08/21 00:03:46;;;;;;;;;6.20;5.00;;;;;21.35;48.58;101374.88;5097509;27;45385;-57
2022/08/21 00:06:11;;;;;;;;;4.50;4.25;;;;;21.31;49.46;101372.75;5098860;27;45419;-50
2022/08/21 00:08:37;;;;;;;;;6.00;4.75;;;;;21.32;48.60;101374.44;5098775;27;45374;-53
2022/08/21 00:11:04;;;;;;;;;5.50;3.75;;;;;21.27;48.68;101371.50;5098501;27;47344;-51
2022/08/21 00:13:29;;;;;;;;;5.20;4.00;;;;;21.24;48.43;101371.88;5098663;27;45376;-54
2022/08/21 00:15:55;;;;;;;;;5.75;4.00;;;;;21.14;49.30;101370.41;5080415;27;45390;-53
2022/08/21 00:18:21;;;;;;;;;4.75;3.25;;;;;21.09;49.64;101372.03;5098717;27;45340;-54
2022/08/21 00:20:46;;;;;;;;;4.00;4.00;;;;;21.04;49.93;101369.13;5098597;27;45370;-54
2022/08/21 00:23:12;;;;;;;;;4.25;3.50;;;;;21.01;50.50;101359.50;5098239;27;45412;-53
2022/08/21 00:25:38;;;;;;;;;4.75;2.50;;;;;21.01;50.29;101364.91;5098742;27;45381;-53
2022/08/21 00:28:06;;;;;;;;;4.00;3.25;;;;;20.95;51.03;101365.75;5098636;27;45548;-53
2022/08/21 00:30:32;;;;;;;;;4.50;3.75;;;;;20.96;50.40;101359.28;5098138;27;46271;-53
2022/08/21 00:32:57;;;;;;;;;4.80;4.00;;;;;20.93;51.04;101365.91;5097364;27;45357;-53
2022/08/21 00:35:27;;;;;;;;;3.00;3.00;;;;;20.90;50.52;101355.53;5098430;27;45338;-52
2022/08/21 00:37:52;;;;;;;;;3.75;3.00;;;;;20.89;51.10;101355.69;5098217;27;45359;-55
2022/08/21 00:40:23;;;;;;;;;6.50;5.50;;;;;20.86;50.60;101354.25;5098391;27;46092;-53
2022/08/21 00:42:49;;;;;;;;;4.25;4.25;;;;;20.78;51.11;101332.78;5098024;27;45612;-52
2022/08/21 00:45:15;;;;;;;;;3.20;2.00;;;;;20.89;51.39;101359.25;5098247;27;45317;-52
2022/08/21 00:47:41;;;;;;;;;4.75;2.75;;;;;20.78;50.96;101340.06;5098518;27;45157;-53
2022/08/21 00:50:09;;;;;;;;;5.00;3.25;;;;;20.79;50.63;101353.38;5098000;27;46109;-53
2022/08/21 00:52:36;;;;;;;;;7.80;2.60;;;;;20.79;50.76;101347.13;5098107;27;45251;-54
2022/08/21 00:55:06;;;;;;;;;1.00;1.00;;;;;20.78;51.35;101358.97;5098059;27;45377;-54
2022/08/21 00:57:38;;;;;;;;;6.25;3.75;;;;;20.78;50.75;101356.28;5098030;27;45226;-51
2022/08/21 01:00:09;;;;;;;;;3.00;3.00;;;;;20.77;51.30;101357.28;5097850;27;46191;-52
2022/08/21 01:02:34;;;;;;;;;3.00;3.00;;;;;20.75;51.68;101351.25;5097726;27;45443;-53
2022/08/21 01:05:00;;;;;;;;;3.25;1.00;;;;;20.74;51.24;101357.72;5098067;27;45341;-53
2022/08/21 01:07:25;;;;;;;;;2.25;2.25;;;;;20.70;50.87;101351.03;5098122;27;45323;-54
2022/08/21 01:09:51;;;;;;;;;1.25;1.25;;;;;20.67;49.76;101349.53;5097428;27;46177;-54
2022/08/21 01:12:17;;;;;;;;;2.50;2.50;;;;;20.52;51.29;101336.16;5097894;27;45328;-53
2022/08/21 01:14:44;;;;;;;;;4.00;3.00;;;;;20.57;51.75;101360.72;5097345;27;45388;-51
2022/08/21 01:17:12;;;;;;;;;4.00;2.25;;;;;20.53;52.00;101364.84;5097961;27;45252;-54
2022/08/21 01:19:38;;;;;;;;;3.00;3.00;;;;;20.57;51.64;101360.72;5097566;27;46006;-54
2022/08/21 01:22:05;;;;;;;;;4.25;2.25;;;;;20.57;52.32;101352.63;5097476;27;45313;-52
2022/08/21 01:24:31;;;;;;;;;2.75;2.75;;;;;20.54;52.32;101350.28;5097416;27;45440;-53
2022/08/21 01:26:57;;;;;;;;;4.00;4.00;;;;;20.57;52.79;101360.72;5097939;27;45322;-52
2022/08/21 01:29:30;;;;;;;;;5.25;4.00;;;;;20.56;52.48;101361.75;5096838;27;45338;-52
2022/08/21 01:31:55;;;;;;;;;7.25;3.25;;;;;20.41;52.71;101339.38;5097124;27;45357;-54
2022/08/21 01:34:21;;;;;;;;;6.50;4.25;;;;;20.47;52.51;101362.88;5097545;27;45329;-52
2022/08/21 01:36:47;;;;;;;;;6.00;4.00;;;;;20.42;52.73;101365.34;5097289;27;45346;-53
2022/08/21 01:39:14;;;;;;;;;5.25;3.00;;;;;20.25;52.58;101345.06;5097029;27;46403;-52
2022/08/21 01:41:40;;;;;;;;;2.75;2.75;;;;;20.35;52.76;101361.75;5097103;27;45400;-52
2022/08/21 01:44:05;;;;;;;;;3.00;3.00;;;;;20.21;53.04;101350.00;5097343;27;45387;-51
2022/08/21 01:46:31;;;;;;;;;2.50;1.75;;;;;20.32;52.71;101379.22;5097580;27;45243;-54
2022/08/21 01:48:57;;;;;;;;;4.75;3.00;;;;;20.26;52.48;101373.72;5097128;27;46882;-52
2022/08/21 01:51:22;;;;;;;;;4.25;4.25;;;;;20.20;52.19;101364.56;5097170;27;45431;-53
2022/08/21 01:53:48;;;;;;;;;5.75;3.00;;;;;20.20;53.38;101361.84;5096252;27;45689;-53
2022/08/21 01:56:16;;;;;;;;;4.00;3.00;;;;;20.22;53.22;101364.34;5097380;27;45374;-53
2022/08/21 01:58:43;;;;;;;;;3.00;3.00;;;;;20.21;52.11;101359.97;5097059;27;46445;-51
2022/08/21 02:01:10;;;;;;;;;6.25;3.00;;;;;20.15;52.26;101361.59;5097054;27;45459;-53
2022/08/21 02:03:35;;;;;;;;;5.25;3.75;;;;;20.17;53.59;101367.63;5097123;27;45445;-53
2022/08/21 02:06:00;;;;;;;;;4.00;3.00;;;;;20.04;53.61;101346.75;5097273;27;45545;-54
2022/08/21 02:08:27;;;;;;;;;4.75;3.50;;;;;20.17;53.43;101365.78;5096875;27;45553;-53
2022/08/21 02:10:53;;;;;;;;;2.25;2.00;;;;;20.20;53.36;101361.84;5097091;27;45271;-53
2022/08/21 02:13:19;;;;;;;;;4.25;4.00;;;;;20.21;52.52;101355.41;5097051;27;45679;-52
2022/08/21 02:15:44;;;;;;;;;4.00;4.00;;;;;20.17;53.24;101356.84;5097090;27;45531;-53
2022/08/21 02:18:10;;;;;;;;;5.25;3.75;;;;;20.12;53.77;101362.81;5096809;27;45954;-54
2022/08/21 02:20:39;;;;;;;;;5.75;4.00;;;;;20.10;53.28;101351.41;5078651;27;45385;-53
2022/08/21 02:23:07;;;;;;;;;3.50;1.75;;;;;20.05;53.00;101342.19;5097430;27;45262;-53
2022/08/21 02:25:33;;;;;;;;;4.00;2.00;;;;;19.99;53.62;101342.97;5097562;27;45462;-52
2022/08/21 02:28:02;;;;;;;;;5.00;3.00;;;;;20.01;52.98;101349.00;5098564;27;46504;-52
2022/08/21 02:30:31;;;;;;;;;4.75;3.00;;;;;19.84;53.72;101324.13;5100330;27;45255;-53
2022/08/21 02:32:56;;;;;;;;;4.00;3.50;;;;;19.93;53.41;101342.72;5100349;27;45377;-53
2022/08/21 02:35:22;;;;;;;;;5.00;3.00;;;;;19.86;53.65;101339.13;5100413;27;45461;-53
2022/08/21 02:37:52;;;;;;;;;5.75;3.00;;;;;19.83;54.58;101344.91;5099664;27;46122;-53
2022/08/21 02:40:20;;;;;;;;;3.50;3.00;;;;;19.84;54.30;101351.97;5100052;27;45522;-53
2022/08/21 02:42:46;;;;;;;;;5.00;2.00;;;;;19.75;54.36;101342.31;5100359;27;45283;-53
2022/08/21 02:45:13;;;;;;;;;5.00;3.50;;;;;19.80;54.83;101350.66;5100492;27;45348;-52
2022/08/21 02:47:39;;;;;;;;;4.25;3.00;;;;;19.82;54.61;101343.22;5099932;27;47036;-53
2022/08/21 02:50:06;;;;;;;;;4.00;3.00;;;;;19.82;54.71;101343.22;5100210;27;45338;-52
2022/08/21 02:52:33;;;;;;;;;5.25;4.00;;;;;19.84;54.38;101343.03;5100162;27;45334;-52
2022/08/21 02:54:58;;;;;;;;;2.00;2.00;;;;;19.82;54.24;101351.31;5100087;27;45441;-52
2022/08/21 02:57:24;;;;;;;;;8.00;3.75;;;;;19.77;54.80;101351.06;5098924;27;45410;-54
2022/08/21 02:59:49;;;;;;;;;3.75;3.75;;;;;19.83;54.95;101357.56;5099908;27;45332;-53
2022/08/21 03:02:14;;;;;;;;;3.50;3.50;;;;;19.82;54.63;101354.03;5099739;27;45686;-53
2022/08/21 03:04:40;;;;;;;;;5.50;3.75;;;;;19.81;54.69;101360.47;5100024;27;45202;-54
2022/08/21 03:07:05;;;;;;;;;4.75;3.25;;;;;19.67;54.21;101335.19;5099585;27;45916;-55
2022/08/21 03:09:31;;;;;;;;;4.50;3.50;;;;;19.71;54.70;101348.28;5099505;27;45454;-54
2022/08/21 03:11:57;;;;;;;;;3.75;3.50;;;;;19.74;54.23;101347.91;5099723;27;45234;-55
2022/08/21 03:14:22;;;;;;;;;4.00;4.00;;;;;19.65;54.70;101345.34;5100212;27;45397;-55
2022/08/21 03:16:48;;;;;;;;;5.50;4.25;;;;;19.64;54.42;101345.53;5099215;27;46270;-52
2022/08/21 03:19:13;;;;;;;;;5.00;4.00;;;;;19.59;54.49;101346.09;5099597;27;45237;-53
2022/08/21 03:21:39;;;;;;;;;4.25;2.00;;;;;19.56;55.02;101341.06;5099574;27;45519;-53
2022/08/21 03:24:04;;;;;;;;;2.50;2.50;;;;;19.58;54.78;101347.09;5099446;27;45480;-54
2022/08/21 03:26:30;;;;;;;;;5.00;3.25;;;;;19.56;55.50;101341.06;5099287;27;47039;-52
2022/08/21 03:28:57;;;;;;;;;4.75;4.00;;;;;19.47;55.53;101325.16;5099274;27;45324;-53
2022/08/21 03:31:23;;;;;;;;;3.00;3.00;;;;;19.54;55.50;101337.72;5099431;27;45404;-53
2022/08/21 03:33:48;;;;;;;;;3.00;3.00;;;;;19.50;55.83;101340.97;5099560;27;45282;-51
2022/08/21 03:36:13;;;;;;;;;5.00;3.75;;;;;19.48;55.81;101337.66;5098961;27;47217;-55
2022/08/21 03:38:39;;;;;;;;;3.00;3.00;;;;;19.48;55.39;101333.09;5098821;27;45349;-52
2022/08/21 03:41:05;;;;;;;;;4.75;3.00;;;;;19.48;55.47;101334.97;5099235;27;45209;-53
2022/08/21 03:43:31;;;;;;;;;4.50;3.00;;;;;19.35;55.33;101312.19;5099512;27;45202;-54
2022/08/21 03:45:57;;;;;;;;;5.25;3.75;;;;;19.41;55.43;101318.69;5099079;27;47348;-53
2022/08/21 03:48:22;;;;;;;;;5.75;4.00;;;;;19.39;55.87;101315.34;5098966;27;45170;-53
2022/08/21 03:50:51;;;;;;;;;7.75;4.50;;;;;19.36;55.49;101310.31;5099152;27;45150;-53
2022/08/21 03:53:16;;;;;;;;;8.00;5.00;;;;;19.31;56.60;101308.19;5099072;27;45441;-53
2022/08/21 03:55:42;;;;;;;;;4.00;4.00;;;;;19.36;56.67;101315.72;5098602;27;46965;-54
2022/08/21 03:58:07;;;;;;;;;3.75;3.75;;;;;19.38;57.00;101311.81;5098522;27;45436;-53
2022/08/21 04:00:33;;;;;;;;;3.75;3.75;;;;;19.40;56.98;101315.16;5098832;27;45302;-52
2022/08/21 04:02:58;;;;;;;;;4.00;3.00;;;;;19.40;57.03;101311.63;5099257;27;45357;-53
2022/08/21 04:05:27;;;;;;;;;3.00;3.00;;;;;19.39;57.34;101307.25;5098640;27;46122;-53
2022/08/21 04:08:03;;;;;;;;;4.75;4.75;;;;;19.31;56.96;101300.13;5098692;27;45337;-52
2022/08/21 04:10:34;;;;;;;;;4.00;4.00;;;;;19.15;56.90;101279.59;5098545;27;45452;-53
2022/08/21 04:13:00;;;;;;;;;7.00;5.50;;;;;19.26;57.29;101301.72;5099016;27;45496;-52
2022/08/21 04:15:26;;;;;;;;;7.50;5.50;;;;;19.22;56.48;101289.63;5098569;27;45922;-53
2022/08/21 04:17:52;;;;;;;;;6.75;4.00;;;;;19.23;56.86;101291.31;5098536;27;45265;-54
2022/08/21 04:20:19;;;;;;;;;5.00;4.00;;;;;19.19;57.34;101304.31;5098712;27;45387;-55
2022/08/21 04:22:45;;;;;;;;;3.00;3.00;;;;;19.19;57.51;101315.13;5098563;27;45468;-52
2022/08/21 04:25:11;;;;;;;;;2.00;2.00;;;;;19.17;57.39;101314.44;5098435;27;47061;-54
2022/08/21 04:27:37;;;;;;;;;5.50;4.00;;;;;19.17;57.03;101315.31;5098328;27;45316;-54
2022/08/21 04:30:04;;;;;;;;;4.50;4.25;;;;;19.18;57.46;101318.84;5098605;27;45258;-51
2022/08/21 04:32:29;;;;;;;;;6.50;3.50;;;;;19.16;57.15;101327.09;5098689;27;45391;-52
2022/08/21 04:35:05;;;;;;;;;4.00;4.00;;;;;19.14;57.37;101331.88;5098047;27;46163;-50
2022/08/21 04:37:31;;;;;;;;;6.75;6.00;;;;;19.14;57.48;101331.88;5079536;27;45297;-55
2022/08/21 04:39:59;;;;;;;;;7.00;5.50;;;;;19.03;57.40;101323.41;5098252;27;45465;-52
2022/08/21 04:42:25;;;;;;;;;6.00;5.00;;;;;19.06;58.06;101337.38;5098410;27;45465;-52
2022/08/21 04:44:52;;;;;;;;;8.50;6.50;;;;;19.14;58.12;101334.56;5098229;27;45314;-55
2022/08/21 04:47:17;;;;;;;;;7.50;6.00;;;;;19.17;57.86;101341.41;5098062;27;45440;-54
2022/08/21 04:49:44;;;;;;;;;5.00;3.25;;;;;19.15;58.07;101341.63;5097405;27;45375;-52
2022/08/21 04:52:11;;;;;;;;;5.25;5.25;;;;;19.16;57.85;101347.84;5098369;27;45373;-55
2022/08/21 04:54:37;;;;;;;;;9.50;5.50;;;;;19.18;58.45;101348.50;5097637;27;46359;-55
2022/08/21 04:57:07;;;;;;;;;5.00;5.00;;;;;19.20;58.27;101339.19;5097773;27;45409;-55
2022/08/21 04:59:36;;;;;;;;;7.75;5.50;;;;;19.18;57.85;101338.56;5098027;27;45540;-53
2022/08/21 05:02:05;;;;;;;;;4.75;4.75;;;;;19.16;58.06;101345.16;5098040;27;45337;-55
2022/08/21 05:04:34;;;;;;;;;5.75;5.50;;;;;19.19;58.63;101353.72;5097828;27;46374;-54
2022/08/21 05:07:03;;;;;;;;;9.00;7.00;;;;;19.23;58.24;101356.03;5097608;27;45322;-54
2022/08/21 05:09:30;;;;;;;;;9.00;5.00;;;;;19.25;58.04;101357.50;5098072;27;45420;-54
2022/08/21 05:11:55;;;;;;;;;6.33;6.00;;;;;19.24;58.48;101352.31;5098171;27;45393;-54
2022/08/21 05:14:21;;;;;;;;;6.67;6.67;;;;;19.17;58.11;101333.34;5097671;27;46368;-53
2022/08/21 05:16:47;;;;;;;;;6.33;5.00;;;;;19.29;58.00;101352.56;5097374;27;45445;-53
2022/08/21 05:19:13;;;;;;;;;6.33;5.67;;;;;19.27;57.97;101344.69;5097844;27;45344;-55
2022/08/21 05:21:42;;;;;;;;;3.75;3.75;;;;;19.24;57.76;101338.81;5097780;27;45476;-53
2022/08/21 05:24:07;;;;;;;;;6.00;6.00;;;;;19.07;57.82;101324.72;5097611;27;45262;-52
2022/08/21 05:26:33;;;;;;;;;5.25;4.00;;;;;19.16;58.01;101345.16;5097368;27;45362;-54
2022/08/21 05:28:58;;;;;;;;;4.00;3.00;;;;;19.10;57.47;101346.75;5097527;27;45376;-55
2022/08/21 05:31:24;;;;;;;;;2.00;2.00;;;;;19.07;57.63;101347.13;5097897;27;45235;-54
2022/08/21 05:33:50;;;;;;;;;5.75;4.00;;;;;19.08;57.69;101348.78;5097195;27;45366;-53
2022/08/21 05:36:17;;;;;;;;;2.75;2.75;;;;;19.08;57.43;101346.09;5097365;27;45268;-55
2022/08/21 05:38:43;;;;;;;;;3.50;3.50;;;;;19.10;57.50;101354.00;5097106;27;45430;-54
2022/08/21 05:41:09;;;;;;;;;5.75;3.00;;;;;19.10;57.61;101343.22;5097396;27;45242;-55
2022/08/21 05:43:36;;;;;;;;;5.00;2.75;;;;;19.11;57.24;101342.19;5097472;27;45386;-54
2022/08/21 05:46:02;;;;;;;;;6.00;3.00;;;;;19.13;56.72;101343.69;5097268;27;45444;-54
2022/08/21 05:48:27;;;;;;;;;3.00;3.00;;;;;19.14;57.04;101341.81;5097395;27;45238;-55
2022/08/21 05:50:53;;;;;;;;;3.75;2.00;;;;;19.13;57.06;101346.38;5097434;27;45400;-55
2022/08/21 05:53:20;;;;;;;;;5.25;4.00;;;;;19.13;56.77;101349.06;5097027;27;47126;-54
2022/08/21 05:55:46;;;;;;;;;3.50;3.00;;;;;19.13;57.00;101349.06;5096984;27;45441;-54
2022/08/21 05:58:17;;;;;;;;;5.25;3.75;;;;;19.19;56.64;101352.88;5097160;27;45505;-52
2022/08/21 06:00:46;;;;;;;;;2.00;2.00;;;;;19.18;56.67;101352.03;5097390;27;45242;-54
2022/08/21 06:03:23;;;;;;;;;3.00;3.00;;;;;19.18;56.69;101351.22;5098405;27;47078;-54
2022/08/21 06:05:49;;;;;;;;;3.50;3.50;;;;;19.25;57.05;101351.28;5100586;27;45386;-55
2022/08/21 06:08:16;;;;;;;;;7.00;3.75;;;;;19.21;56.80;101337.31;5100754;27;45436;-55
2022/08/21 06:10:42;;;;;;;;;4.25;4.25;;;;;19.34;56.72;101344.75;5100821;27;45323;-55
2022/08/21 06:13:08;;;;;;;;;4.00;3.75;;;;;19.34;56.57;101348.31;5100204;27;46436;-50
2022/08/21 06:15:34;;;;;;;;;2.75;2.50;;;;;19.36;55.92;101346.22;5100359;27;45457;-54
2022/08/21 06:18:00;;;;;;;;;2.50;1.00;;;;;19.36;55.86;101353.50;5082122;27;45601;-54
2022/08/21 06:20:25;;;;;;;;;4.75;3.00;;;;;19.23;56.33;101340.69;5100599;27;45428;-54
2022/08/21 06:22:51;;;;;;;;;4.00;3.75;;;;;19.42;56.52;101356.28;5100420;27;46003;-52
2022/08/21 06:25:16;;;;;;;;;7.50;4.50;;;;;19.47;56.53;101361.09;5100459;27;45464;-53
2022/08/21 06:27:42;;;;;;;;;4.50;3.75;;;;;19.43;55.81;101343.63;5100504;27;45313;-53
2022/08/21 06:30:08;;;;;;;;;7.75;4.50;;;;;19.47;55.79;101354.84;5100545;27;45308;-53
2022/08/21 06:32:34;;;;;;;;;7.25;4.00;;;;;19.52;56.32;101342.47;5100369;27;46271;-53
2022/08/21 06:34:59;;;;;;;;;4.75;4.75;;;;;19.64;55.84;101348.25;5081726;27;45432;-53
2022/08/21 06:37:25;;;;;;;;;4.00;4.00;;;;;19.69;55.87;101343.09;5099870;27;45271;-53
2022/08/21 06:39:50;;;;;;;;;4.00;3.00;;;;;19.79;55.31;101332.81;5100504;27;45313;-54
2022/08/21 06:42:16;;;;;;;;;5.00;3.00;;;;;19.81;54.96;101340.72;5098527;27;45913;-52
2022/08/21 06:44:42;;;;;;;;;6.75;5.00;;;;;19.81;55.34;101346.13;5100018;27;45561;-53
2022/08/21 06:47:08;;;;;;;;;5.50;3.00;;;;;19.82;55.41;101332.44;5100079;27;45315;-53
2022/08/21 06:49:33;;;;;;;;;5.25;4.00;;;;;19.89;55.64;101329.81;5100234;27;45320;-55
2022/08/21 06:51:58;;;;;;;;;7.25;4.00;;;;;20.03;55.25;101319.94;5080948;27;46401;-55
2022/08/21 06:54:24;;;;;;;;;4.00;4.00;;;;;20.13;55.32;101315.03;5099847;27;45360;-53
2022/08/21 06:56:49;;;;;;;;;5.25;4.25;;;;;20.17;54.64;101300.09;5099862;27;45290;-51
2022/08/21 06:59:15;;;;;;;;;4.50;4.00;;;;;20.48;54.63;101324.06;5099970;27;45407;-53
2022/08/21 07:01:41;;;;;;;;;5.25;2.25;;;;;20.72;53.73;101330.03;5099773;27;45991;-55
2022/08/21 07:04:06;;;;;;;;;4.25;4.00;;;;;20.97;53.94;101323.09;5099359;27;45471;-53
2022/08/21 07:06:32;;;;;;;;;5.00;4.00;;;;;21.26;52.80;101310.31;5081299;27;45262;-53
2022/08/21 07:08:57;;;;;;;;;7.00;4.00;;;;;21.72;52.09;101323.16;5100037;27;45400;-55
2022/08/21 07:11:24;;;;;;;;;4.00;4.00;;;;;22.14;51.21;101319.25;5099478;27;46050;-54
2022/08/21 07:13:52;;;;;;;;;3.50;3.50;;;;;22.76;49.69;101323.31;5099040;27;45230;-54
2022/08/21 07:16:18;;;;;;;;;7.00;4.50;;;;;23.24;48.68;101305.84;5099685;27;45369;-53
2022/08/21 07:18:44;;;;;;;;;8.25;6.75;;;;;23.75;47.49;101311.19;5099668;27;45237;-54
2022/08/21 07:21:10;;;;;;;;;7.75;4.75;;;;;23.80;47.49;101318.66;5099248;27;45325;-53
2022/08/21 07:23:41;;;;;;;;;6.00;5.00;;;;;23.93;47.14;101317.72;5098198;27;45362;-53
2022/08/21 07:26:06;;;;;;;;;7.60;6.00;;;;;24.10;46.54;101314.25;5099097;27;45520;-53
2022/08/21 07:28:32;;;;;;;;;7.00;4.00;;;;;24.67;46.50;101314.16;5099701;27;45336;-53
2022/08/21 07:31:00;;;;;;;;;10.80;6.80;;;;;25.18;45.16;101302.03;5099153;27;45215;-55
2022/08/21 07:33:27;;;;;;;;;3.40;1.20;;;;;25.63;44.12;101315.25;5099122;27;45423;-53
2022/08/21 07:35:53;;;;;;;;;6.80;5.80;;;;;26.13;43.05;101315.72;5099295;27;45336;-54
2022/08/21 07:38:18;;;;;;;;;5.25;4.00;;;;;27.08;40.99;101310.97;5099260;27;46613;-54
2022/08/21 07:40:45;;;;;;;;;6.50;4.50;;;;;28.26;38.63;101305.72;5099238;27;46090;-54
2022/08/21 07:43:11;;;;;;;;;4.40;3.80;;;;;29.09;37.10;101290.19;5080463;27;45443;-53
2022/08/21 07:45:37;;;;;;;;;4.00;4.00;;;;;29.26;37.54;101293.66;5099223;27;45483;-53
2022/08/21 07:48:03;;;;;;;;;4.00;3.60;;;;;29.73;35.92;101300.44;5099500;27;45441;-54
2022/08/21 07:50:28;;;;;;;;;7.00;6.20;;;;;29.90;36.64;101301.13;5099107;27;46935;-54
2022/08/21 07:52:53;;;;;;;;;7.75;5.00;;;;;30.12;34.75;101294.69;5099043;27;45227;-55
2022/08/21 07:55:21;;;;;;;;;5.00;3.00;;;;;30.37;37.03;101300.38;5099161;27;45275;-54
2022/08/21 07:57:47;;;;;;;;;9.20;4.80;;;;;30.47;35.35;101300.44;5099079;27;45316;-54
2022/08/21 08:00:16;;;;;;;;;3.40;3.40;;;;;30.35;35.19;101294.34;5098842;27;46201;-55
2022/08/21 08:02:45;;;;;;;;;7.00;4.00;;;;;30.31;35.14;101293.22;5098740;27;45435;-54
2022/08/21 08:05:11;;;;;;;;;7.60;6.40;;;;;30.26;35.51;101288.53;5098998;27;45333;-54
2022/08/21 08:07:38;;;;;;;;;5.20;3.60;;;;;30.21;34.92;101293.94;5080528;27;45375;-54
2022/08/21 08:10:06;;;;;;;;;6.00;4.80;;;;;30.64;34.10;101288.44;5098572;27;47398;-54
2022/08/21 08:12:34;;;;;;;;;5.00;5.00;;;;;30.86;34.18;101283.63;5098549;27;45540;-55
2022/08/21 08:15:00;;;;;;;;;3.80;3.80;;;;;30.95;33.67;101292.16;5098812;27;45313;-53
2022/08/21 08:17:27;;;;;;;;;3.60;3.00;;;;;31.23;33.06;101294.44;5098906;27;45328;-54
2022/08/21 08:19:53;;;;;;;;;7.20;4.20;;;;;31.46;33.13;101293.13;5098461;27;46028;-54
2022/08/21 08:22:23;;;;;;;;;5.80;5.20;;;;;31.37;32.48;101285.72;5098692;27;45354;-54
2022/08/21 08:24:49;;;;;;;;;4.00;4.00;;;;;31.33;32.09;101282.66;5097601;27;45338;-53
2022/08/21 08:27:15;;;;;;;;;4.00;4.00;;;;;31.24;32.01;101276.84;5098766;27;45271;-54
2022/08/21 08:29:41;;;;;;;;;4.00;4.00;;;;;30.96;31.98;101269.91;5098293;27;46187;-54
2022/08/21 08:32:09;;;;;;;;;6.50;4.75;;;;;30.98;33.08;101284.22;5098512;27;45307;-54
2022/08/21 08:34:36;;;;;;;;;6.40;6.40;;;;;30.91;33.02;101285.56;5098870;27;45349;-54
2022/08/21 08:37:03;;;;;;;;;5.00;4.40;;;;;30.61;31.88;101284.31;5098395;27;45244;-54
2022/08/21 08:39:28;;;;;;;;;2.40;2.40;;;;;30.60;32.79;101285.41;5098274;27;46080;-54
2022/08/21 08:42:13;;;;;;;;;7.00;5.75;;;;;31.05;32.59;101279.28;5098155;27;45307;-54
2022/08/21 08:44:38;;;;;;;;;8.40;6.40;;;;;30.94;32.49;101260.31;5098494;27;45443;-54
2022/08/21 08:47:05;;;;;;;;;4.25;4.00;;;;;30.37;33.29;101275.66;5098483;27;45416;-54
2022/08/21 08:49:49;;;;;;;;;5.60;4.60;;;;;29.69;34.24;101282.84;5098474;27;45936;-53
2022/08/21 08:52:28;;;;;;;;;5.20;4.40;;;;;29.08;34.95;101283.88;5097949;27;45392;-53
2022/08/21 08:55:01;;;;;;;;;3.80;3.80;;;;;28.80;34.68;101276.66;5098327;27;45302;-54
2022/08/21 08:57:27;;;;;;;;;8.60;4.60;;;;;29.57;33.33;101274.78;5098020;27;45316;-54
2022/08/21 08:59:57;;;;;;;;;5.00;5.00;;;;;30.91;32.89;101266.31;5098065;27;45692;-55
2022/08/21 09:02:23;;;;;;;;;4.80;4.80;;;;;31.76;30.62;101261.25;5097853;27;45355;-54
2022/08/21 09:04:51;;;;;;;;;7.25;4.75;;;;;31.46;30.96;101273.88;5097914;27;45611;-55
2022/08/21 09:07:31;;;;;;;;;8.60;6.40;;;;;31.33;31.44;101265.34;5098244;27;45343;-54
2022/08/21 09:10:18;;;;;;;;;3.80;3.80;;;;;32.53;30.93;101260.06;5097839;27;46210;-54
2022/08/21 09:12:50;;;;;;;;;6.60;5.00;;;;;34.22;27.06;101261.66;5097704;27;45247;-53
2022/08/21 09:15:21;;;;;;;;;6.00;3.80;;;;;35.06;28.03;101253.72;5097873;27;45296;-53
2022/08/21 09:18:02;;;;;;;;;6.00;4.80;;;;;35.15;27.51;101246.38;5097600;27;45507;-54
2022/08/21 09:21:09;;;;;;;;;3.20;3.20;;;;;34.92;26.65;101250.00;5079209;27;46101;-54
2022/08/21 09:23:59;;;;;;;;;6.00;5.00;;;;;34.60;26.78;101243.28;5097630;27;45252;-54
2022/08/21 09:26:30;;;;;;;;;4.40;3.60;;;;;35.02;26.39;101236.09;5097670;27;45393;-54
2022/08/21 09:28:58;;;;;;;;;4.00;3.20;;;;;35.90;26.42;101228.84;5097607;27;45491;-54
2022/08/21 09:31:33;;;;;;;;;7.80;2.80;;;;;36.34;25.62;101237.69;5097361;27;46080;-54
2022/08/21 09:34:08;;;;;;;;;4.60;3.00;;;;;36.34;25.33;101227.44;5097429;27;45365;-53
2022/08/21 09:36:38;;;;;;;;;5.20;3.00;;;;;36.67;23.05;101224.56;5096969;27;45256;-53
2022/08/21 09:39:04;;;;;;;;;6.60;3.40;;;;;35.89;23.90;101229.13;5097444;27;45479;-53
2022/08/21 09:41:34;;;;;;;;;4.80;3.00;;;;;34.62;25.80;101226.38;5097383;27;46139;-54
2022/08/21 09:43:59;;;;;;;;;4.40;4.20;;;;;34.21;26.66;101232.38;5097172;27;45492;-54
2022/08/21 09:46:27;;;;;;;;;2.75;2.50;;;;;34.33;25.68;101235.53;5097788;27;45338;-54
2022/08/21 09:48:56;;;;;;;;;2.80;2.80;;;;;35.28;24.99;101238.47;5097658;27;45857;-53
2022/08/21 09:51:32;;;;;;;;;3.00;3.00;;;;;35.73;25.70;101239.63;5096996;27;47026;-54
2022/08/21 09:54:06;;;;;;;;;2.80;2.80;;;;;36.57;24.00;101235.84;5097417;27;45416;-53
2022/08/21 09:59:37;;;;;;;;;5.80;3.20;;;;;36.42;24.00;101240.56;5097456;27;45291;-52
2022/08/21 10:02:28;;;;;;;;;2.60;2.20;;;;;36.82;23.71;101224.19;5097143;27;46202;-54
2022/08/21 10:05:22;;;;;;;;;3.80;3.60;;;;;37.52;22.21;101222.03;5097198;27;45225;-52
2022/08/21 10:07:48;;;;;;;;;6.00;6.00;;;;;37.92;22.49;101212.63;5097120;27;45412;-53
2022/08/21 10:10:29;;;;;;;;;2.75;2.75;;;;;38.18;22.76;101211.94;5097315;27;45220;-52
2022/08/21 10:13:03;;;;;;;;;6.80;3.20;;;;;37.35;22.99;101208.84;5096699;27;46259;-53
2022/08/21 10:16:02;;;;;;;;;3.00;3.00;;;;;37.24;23.02;101201.88;5097321;27;45477;-54
2022/08/21 10:18:39;;;;;;;;;5.00;3.80;;;;;37.45;23.25;101206.63;5097110;27;45456;-54
2022/08/21 10:21:23;;;;;;;;;3.80;3.80;;;;;36.85;23.05;101189.50;5097482;27;45184;-51
2022/08/21 10:24:16;;;;;;;;;2.60;2.60;;;;;35.49;23.87;101192.75;5097288;27;45900;-54
2022/08/21 10:26:54;;;;;;;;;4.00;2.40;;;;;34.23;25.26;101189.56;5096857;27;45300;-54
2022/08/21 10:29:25;;;;;;;;;3.80;2.60;;;;;32.97;26.67;101192.34;5096904;27;45275;-54
2022/08/21 10:32:13;;;;;;;;;8.40;4.80;;;;;31.82;28.09;101191.38;5097067;27;45481;-52
2022/08/21 10:34:54;;;;;;;;;4.40;3.80;;;;;30.78;29.47;101183.34;5078129;27;46366;-55
2022/08/21 10:37:47;;;;;;;;;5.00;5.00;;;;;30.12;30.83;101180.28;5096436;27;45520;-54
2022/08/21 10:40:24;;;;;;;;;4.00;3.00;;;;;29.46;31.74;101188.88;5096717;27;45433;-53
2022/08/21 10:43:00;;;;;;;;;5.40;5.40;;;;;28.89;31.84;101183.09;5096801;27;45361;-54
2022/08/21 10:45:50;;;;;;;;;3.20;2.60;;;;;28.46;33.02;101177.44;5096651;27;46255;-54
2022/08/21 10:48:25;;;;;;;;;3.80;1.60;;;;;28.19;33.51;101174.59;5097451;27;45298;-53
2022/08/21 10:51:10;;;;;;;;;3.00;2.80;;;;;28.06;33.92;101174.94;5100389;27;45285;-53
2022/08/21 10:53:46;;;;;;;;;4.40;3.00;;;;;28.41;33.91;101171.91;5099888;27;45615;-52
2022/08/21 10:56:17;;;;;;;;;3.60;3.60;;;;;29.67;31.25;101154.25;5099930;27;45785;-54
2022/08/21 10:58:48;;;;;;;;;3.00;3.00;;;;;31.47;28.14;101153.72;5099755;27;45390;-54
2022/08/21 11:01:33;;;;;;;;;1.20;1.20;;;;;32.87;26.67;101149.13;5100082;27;45247;-54
2022/08/21 11:04:06;;;;;;;;;3.20;2.80;;;;;33.70;26.20;101152.84;5100207;27;45295;-53
2022/08/21 11:06:33;;;;;;;;;2.20;2.00;;;;;33.36;26.21;101159.22;5099140;27;45420;-55
2022/08/21 11:09:11;;;;;;;;;5.40;3.20;;;;;32.48;27.33;101152.66;5099596;27;45389;-52
2022/08/21 11:11:44;;;;;;;;;3.40;2.00;;;;;31.93;27.56;101154.50;5099803;27;45390;-53
2022/08/21 11:14:25;;;;;;;;;4.00;4.00;;;;;31.39;28.84;101152.34;5100060;27;45509;-54
2022/08/21 11:17:05;;;;;;;;;4.00;3.00;;;;;30.79;28.77;101148.44;5099610;27;46149;-54
2022/08/21 11:19:38;;;;;;;;;4.60;3.00;;;;;30.12;29.33;101161.06;5099495;27;45579;-54
2022/08/21 11:22:25;;;;;;;;;2.80;2.00;;;;;29.65;30.36;101166.56;5099755;27;45523;-54
2022/08/21 11:25:00;;;;;;;;;2.80;2.80;;;;;29.42;31.59;101176.78;5099807;27;45270;-54
2022/08/21 11:27:37;;;;;;;;;2.20;2.20;;;;;29.44;31.02;101179.25;5099421;27;45289;-54
2022/08/21 11:30:04;;;;;;;;;6.00;3.00;;;;;29.30;31.73;101173.41;5099505;27;45379;-53
2022/08/21 11:32:50;;;;;;;;;4.00;2.00;;;;;29.18;32.03;101180.94;5099565;27;45405;-53
2022/08/21 11:35:28;;;;;;;;;3.00;3.00;;;;;29.80;30.88;101183.94;5099784;27;45424;-53